sensor_id;sensor_type;location;lat;lon;timestamp;P1;durP1;ratioP1;P2;durP2;ratioP2
2570;SDS011;1295;51.130;6.732;2023-01-05T00:00:36;76.03;;;25.40;;
2570;SDS011;1295;51.130;6.732;2023-01-05T00:03:02;78.33;;;26.70;;
2570;SDS011;1295;51.130;6.732;2023-01-05T00:05:28;78.20;;;18.60;;
2570;SDS011;1295;51.130;6.732;2023-01-05T00:07:53;79.37;;;34.23;;
2570;SDS011;1295;51.130;6.732;2023-01-05T00:10:19;69.27;;;17.87;;
2570;SDS011;1295;51.130;6.732;2023-01-05T00:12:51;80.10;;;15.30;;
2570;SDS011;1295;51.130;6.732;2023-01-05T00:15:36;77.80;;;23.13;;
2570;SDS011;1295;51.130;6.732;2023-01-05T00:18:08;79.60;;;18.03;;
2570;SDS011;1295;51.130;6.732;2023-01-05T00:20:40;73.30;;;20.23;;
2570;SDS011;1295;51.130;6.732;2023-01-05T00:23:11;95.43;;;15.80;;
2570;SDS011;1295;51.130;6.732;2023-01-05T00:25:38;73.87;;;10.20;;
2570;SDS011;1295;51.130;6.732;2023-01-05T00:28:03;80.80;;;34.97;;
2570;SDS011;1295;51.130;6.732;2023-01-05T00:30:31;83.70;;;20.83;;
2570;SDS011;1295;51.130;6.732;2023-01-05T00:32:56;80.53;;;25.53;;
2570;SDS011;1295;51.130;6.732;2023-01-05T00:35:22;70.43;;;10.40;;
2570;SDS011;1295;51.130;6.732;2023-01-05T00:37:48;69.00;;;9.80;;
2570;SDS011;1295;51.130;6.732;2023-01-05T00:40:14;75.20;;;13.50;;
2570;SDS011;1295;51.130;6.732;2023-01-05T00:42:39;79.13;;;14.40;;
2570;SDS011;1295;51.130;6.732;2023-01-05T00:45:05;84.40;;;23.47;;
2570;SDS011;1295;51.130;6.732;2023-01-05T00:47:31;75.97;;;16.23;;
2570;SDS011;1295;51.130;6.732;2023-01-05T00:49:57;78.30;;;13.93;;
2570;SDS011;1295;51.130;6.732;2023-01-05T00:52:22;72.53;;;11.17;;
2570;SDS011;1295;51.130;6.732;2023-01-05T00:54:48;71.40;;;10.00;;
2570;SDS011;1295;51.130;6.732;2023-01-05T00:57:14;73.90;;;23.10;;
2570;SDS011;1295;51.130;6.732;2023-01-05T00:59:39;88.23;;;19.93;;
2570;SDS011;1295;51.130;6.732;2023-01-05T01:02:05;85.57;;;28.90;;
2570;SDS011;1295;51.130;6.732;2023-01-05T01:04:31;84.53;;;49.53;;
2570;SDS011;1295;51.130;6.732;2023-01-05T01:06:56;86.77;;;48.27;;
2570;SDS011;1295;51.130;6.732;2023-01-05T01:09:22;74.27;;;20.73;;
2570;SDS011;1295;51.130;6.732;2023-01-05T01:11:47;85.47;;;38.90;;
2570;SDS011;1295;51.130;6.732;2023-01-05T01:14:13;82.90;;;33.17;;
2570;SDS011;1295;51.130;6.732;2023-01-05T01:16:39;80.90;;;30.20;;
2570;SDS011;1295;51.130;6.732;2023-01-05T01:19:04;73.63;;;17.50;;
2570;SDS011;1295;51.130;6.732;2023-01-05T01:21:30;118.07;;;86.67;;
2570;SDS011;1295;51.130;6.732;2023-01-05T01:23:55;72.70;;;23.63;;
2570;SDS011;1295;51.130;6.732;2023-01-05T01:26:21;87.43;;;34.07;;
2570;SDS011;1295;51.130;6.732;2023-01-05T01:28:47;87.87;;;37.17;;
2570;SDS011;1295;51.130;6.732;2023-01-05T01:31:12;78.67;;;26.93;;
2570;SDS011;1295;51.130;6.732;2023-01-05T01:33:38;70.57;;;16.17;;
2570;SDS011;1295;51.130;6.732;2023-01-05T01:36:04;75.60;;;20.23;;
2570;SDS011;1295;51.130;6.732;2023-01-05T01:38:30;88.60;;;27.60;;
2570;SDS011;1295;51.130;6.732;2023-01-05T01:40:56;83.33;;;23.67;;
2570;SDS011;1295;51.130;6.732;2023-01-05T01:46:07;69.43;;;17.00;;
2570;SDS011;1295;51.130;6.732;2023-01-05T01:48:33;68.03;;;17.60;;
2570;SDS011;1295;51.130;6.732;2023-01-05T01:50:59;70.70;;;14.50;;
2570;SDS011;1295;51.130;6.732;2023-01-05T01:53:26;90.00;;;54.73;;
2570;SDS011;1295;51.130;6.732;2023-01-05T01:55:50;83.23;;;38.43;;
2570;SDS011;1295;51.130;6.732;2023-01-05T01:58:16;77.73;;;34.53;;
2570;SDS011;1295;51.130;6.732;2023-01-05T02:00:41;95.17;;;43.03;;
2570;SDS011;1295;51.130;6.732;2023-01-05T02:03:08;83.23;;;37.70;;
2570;SDS011;1295;51.130;6.732;2023-01-05T02:05:33;85.50;;;41.73;;
2570;SDS011;1295;51.130;6.732;2023-01-05T02:07:59;81.07;;;35.63;;
2570;SDS011;1295;51.130;6.732;2023-01-05T02:10:30;75.43;;;22.60;;
2570;SDS011;1295;51.130;6.732;2023-01-05T02:13:04;78.77;;;23.83;;
2570;SDS011;1295;51.130;6.732;2023-01-05T02:15:38;86.03;;;53.17;;
2570;SDS011;1295;51.130;6.732;2023-01-05T02:18:07;84.80;;;25.00;;
2570;SDS011;1295;51.130;6.732;2023-01-05T02:20:35;76.07;;;22.30;;
2570;SDS011;1295;51.130;6.732;2023-01-05T02:23:03;93.63;;;13.93;;
2570;SDS011;1295;51.130;6.732;2023-01-05T02:28:07;80.93;;;26.43;;
2570;SDS011;1295;51.130;6.732;2023-01-05T02:33:18;79.87;;;30.63;;
2570;SDS011;1295;51.130;6.732;2023-01-05T02:35:46;79.57;;;30.37;;
2570;SDS011;1295;51.130;6.732;2023-01-05T02:40:43;103.80;;;77.00;;
2570;SDS011;1295;51.130;6.732;2023-01-05T02:43:08;96.17;;;43.07;;
2570;SDS011;1295;51.130;6.732;2023-01-05T02:45:33;84.90;;;43.63;;
2570;SDS011;1295;51.130;6.732;2023-01-05T02:47:59;85.20;;;56.00;;
2570;SDS011;1295;51.130;6.732;2023-01-05T02:50:27;93.17;;;71.27;;
2570;SDS011;1295;51.130;6.732;2023-01-05T02:52:55;105.67;;;60.30;;
2570;SDS011;1295;51.130;6.732;2023-01-05T02:55:23;93.47;;;56.70;;
2570;SDS011;1295;51.130;6.732;2023-01-05T02:57:49;87.80;;;29.67;;
2570;SDS011;1295;51.130;6.732;2023-01-05T03:00:16;87.30;;;49.73;;
2570;SDS011;1295;51.130;6.732;2023-01-05T03:02:45;85.10;;;43.30;;
2570;SDS011;1295;51.130;6.732;2023-01-05T03:05:12;94.03;;;70.93;;
2570;SDS011;1295;51.130;6.732;2023-01-05T03:07:38;86.27;;;61.53;;
2570;SDS011;1295;51.130;6.732;2023-01-05T03:10:04;110.93;;;97.13;;
2570;SDS011;1295;51.130;6.732;2023-01-05T03:12:31;92.97;;;51.03;;
2570;SDS011;1295;51.130;6.732;2023-01-05T03:15:04;124.63;;;111.27;;
2570;SDS011;1295;51.130;6.732;2023-01-05T03:17:30;91.20;;;49.83;;
2570;SDS011;1295;51.130;6.732;2023-01-05T03:19:53;111.73;;;99.60;;
2570;SDS011;1295;51.130;6.732;2023-01-05T03:22:22;110.83;;;96.00;;
2570;SDS011;1295;51.130;6.732;2023-01-05T03:24:55;94.07;;;72.63;;
2570;SDS011;1295;51.130;6.732;2023-01-05T03:27:26;138.13;;;125.07;;
2570;SDS011;1295;51.130;6.732;2023-01-05T03:29:59;110.30;;;89.60;;
2570;SDS011;1295;51.130;6.732;2023-01-05T03:32:31;86.90;;;60.80;;
2570;SDS011;1295;51.130;6.732;2023-01-05T03:35:07;152.67;;;138.47;;
2570;SDS011;1295;51.130;6.732;2023-01-05T03:37:41;99.97;;;87.63;;
2570;SDS011;1295;51.130;6.732;2023-01-05T03:40:06;122.77;;;111.47;;
2570;SDS011;1295;51.130;6.732;2023-01-05T03:42:31;91.37;;;60.67;;
2570;SDS011;1295;51.130;6.732;2023-01-05T03:44:57;119.03;;;104.20;;
2570;SDS011;1295;51.130;6.732;2023-01-05T03:47:23;132.03;;;119.50;;
2570;SDS011;1295;51.130;6.732;2023-01-05T03:49:49;159.13;;;146.30;;
2570;SDS011;1295;51.130;6.732;2023-01-05T03:52:14;151.87;;;138.17;;
2570;SDS011;1295;51.130;6.732;2023-01-05T03:54:40;132.60;;;120.50;;
2570;SDS011;1295;51.130;6.732;2023-01-05T03:57:05;101.77;;;67.90;;
2570;SDS011;1295;51.130;6.732;2023-01-05T03:59:31;99.67;;;67.47;;
2570;SDS011;1295;51.130;6.732;2023-01-05T04:01:56;99.23;;;82.50;;
2570;SDS011;1295;51.130;6.732;2023-01-05T04:04:22;126.83;;;114.07;;
2570;SDS011;1295;51.130;6.732;2023-01-05T04:06:48;100.23;;;73.60;;
2570;SDS011;1295;51.130;6.732;2023-01-05T04:09:13;85.43;;;44.07;;
2570;SDS011;1295;51.130;6.732;2023-01-05T04:11:39;114.10;;;102.73;;
2570;SDS011;1295;51.130;6.732;2023-01-05T04:14:04;110.03;;;98.40;;
2570;SDS011;1295;51.130;6.732;2023-01-05T04:16:30;125.00;;;112.83;;
2570;SDS011;1295;51.130;6.732;2023-01-05T04:18:56;81.67;;;57.93;;
2570;SDS011;1295;51.130;6.732;2023-01-05T04:21:21;104.87;;;78.57;;
2570;SDS011;1295;51.130;6.732;2023-01-05T04:23:47;92.60;;;73.63;;
2570;SDS011;1295;51.130;6.732;2023-01-05T04:26:13;160.37;;;147.53;;
2570;SDS011;1295;51.130;6.732;2023-01-05T04:28:39;138.30;;;125.27;;
2570;SDS011;1295;51.130;6.732;2023-01-05T04:31:05;118.33;;;105.63;;
2570;SDS011;1295;51.130;6.732;2023-01-05T04:33:30;139.80;;;126.97;;
2570;SDS011;1295;51.130;6.732;2023-01-05T04:35:56;129.00;;;117.97;;
2570;SDS011;1295;51.130;6.732;2023-01-05T04:38:21;121.63;;;109.57;;
2570;SDS011;1295;51.130;6.732;2023-01-05T04:40:48;96.70;;;81.63;;
2570;SDS011;1295;51.130;6.732;2023-01-05T04:43:14;89.53;;;65.27;;
2570;SDS011;1295;51.130;6.732;2023-01-05T04:45:39;111.03;;;95.07;;
2570;SDS011;1295;51.130;6.732;2023-01-05T04:48:05;106.80;;;94.93;;
2570;SDS011;1295;51.130;6.732;2023-01-05T04:50:31;144.37;;;132.37;;
2570;SDS011;1295;51.130;6.732;2023-01-05T04:52:56;122.53;;;111.03;;
2570;SDS011;1295;51.130;6.732;2023-01-05T04:55:22;114.60;;;103.60;;
2570;SDS011;1295;51.130;6.732;2023-01-05T04:57:48;124.97;;;112.90;;
2570;SDS011;1295;51.130;6.732;2023-01-05T05:00:13;116.53;;;104.83;;
2570;SDS011;1295;51.130;6.732;2023-01-05T05:02:39;97.40;;;73.47;;
2570;SDS011;1295;51.130;6.732;2023-01-05T05:05:05;104.73;;;72.53;;
2570;SDS011;1295;51.130;6.732;2023-01-05T05:07:30;101.27;;;90.17;;
2570;SDS011;1295;51.130;6.732;2023-01-05T05:09:56;92.53;;;82.20;;
2570;SDS011;1295;51.130;6.732;2023-01-05T05:12:23;92.30;;;67.07;;
2570;SDS011;1295;51.130;6.732;2023-01-05T05:14:48;129.17;;;116.47;;
2570;SDS011;1295;51.130;6.732;2023-01-05T05:17:14;102.23;;;75.90;;
2570;SDS011;1295;51.130;6.732;2023-01-05T05:19:39;92.63;;;75.33;;
2570;SDS011;1295;51.130;6.732;2023-01-05T05:22:05;97.07;;;85.33;;
2570;SDS011;1295;51.130;6.732;2023-01-05T05:24:31;143.50;;;130.43;;
2570;SDS011;1295;51.130;6.732;2023-01-05T05:26:57;108.17;;;96.73;;
2570;SDS011;1295;51.130;6.732;2023-01-05T05:29:23;130.70;;;118.83;;
2570;SDS011;1295;51.130;6.732;2023-01-05T05:31:49;101.43;;;90.97;;
2570;SDS011;1295;51.130;6.732;2023-01-05T05:34:14;100.37;;;78.47;;
2570;SDS011;1295;51.130;6.732;2023-01-05T05:36:41;95.43;;;78.87;;
2570;SDS011;1295;51.130;6.732;2023-01-05T05:39:06;97.07;;;64.33;;
2570;SDS011;1295;51.130;6.732;2023-01-05T05:41:32;90.47;;;53.63;;
2570;SDS011;1295;51.130;6.732;2023-01-05T05:43:57;103.63;;;77.53;;
2570;SDS011;1295;51.130;6.732;2023-01-05T05:46:23;95.60;;;55.47;;
2570;SDS011;1295;51.130;6.732;2023-01-05T05:48:49;94.10;;;56.50;;
2570;SDS011;1295;51.130;6.732;2023-01-05T05:51:14;112.73;;;86.97;;
2570;SDS011;1295;51.130;6.732;2023-01-05T05:53:40;111.30;;;99.40;;
2570;SDS011;1295;51.130;6.732;2023-01-05T05:56:06;116.60;;;104.80;;
2570;SDS011;1295;51.130;6.732;2023-01-05T05:58:32;92.60;;;62.87;;
2570;SDS011;1295;51.130;6.732;2023-01-05T06:00:57;92.77;;;62.57;;
2570;SDS011;1295;51.130;6.732;2023-01-05T06:03:24;110.83;;;99.73;;
2570;SDS011;1295;51.130;6.732;2023-01-05T06:05:55;97.27;;;81.10;;
2570;SDS011;1295;51.130;6.732;2023-01-05T06:08:20;98.77;;;86.50;;
2570;SDS011;1295;51.130;6.732;2023-01-05T06:10:47;88.20;;;36.93;;
2570;SDS011;1295;51.130;6.732;2023-01-05T06:13:13;96.47;;;78.33;;
2570;SDS011;1295;51.130;6.732;2023-01-05T06:15:39;97.67;;;85.20;;
2570;SDS011;1295;51.130;6.732;2023-01-05T06:18:05;107.30;;;79.60;;
2570;SDS011;1295;51.130;6.732;2023-01-05T06:20:31;95.37;;;71.60;;
2570;SDS011;1295;51.130;6.732;2023-01-05T06:22:57;102.50;;;91.80;;
2570;SDS011;1295;51.130;6.732;2023-01-05T06:25:22;109.07;;;91.63;;
2570;SDS011;1295;51.130;6.732;2023-01-05T06:27:48;96.13;;;81.30;;
2570;SDS011;1295;51.130;6.732;2023-01-05T06:30:13;103.90;;;68.93;;
2570;SDS011;1295;51.130;6.732;2023-01-05T06:32:39;96.83;;;55.03;;
2570;SDS011;1295;51.130;6.732;2023-01-05T06:35:05;101.57;;;41.47;;
2570;SDS011;1295;51.130;6.732;2023-01-05T06:37:31;86.03;;;43.43;;
2570;SDS011;1295;51.130;6.732;2023-01-05T06:39:57;87.80;;;31.70;;
2570;SDS011;1295;51.130;6.732;2023-01-05T06:42:22;89.87;;;46.30;;
2570;SDS011;1295;51.130;6.732;2023-01-05T06:44:48;106.73;;;70.83;;
2570;SDS011;1295;51.130;6.732;2023-01-05T06:47:14;105.93;;;73.40;;
2570;SDS011;1295;51.130;6.732;2023-01-05T06:49:39;119.63;;;107.07;;
2570;SDS011;1295;51.130;6.732;2023-01-05T06:52:05;102.17;;;82.77;;
2570;SDS011;1295;51.130;6.732;2023-01-05T06:54:31;95.10;;;67.53;;
2570;SDS011;1295;51.130;6.732;2023-01-05T06:56:56;99.17;;;59.20;;
2570;SDS011;1295;51.130;6.732;2023-01-05T06:59:22;100.23;;;88.13;;
2570;SDS011;1295;51.130;6.732;2023-01-05T07:01:47;149.83;;;137.03;;
2570;SDS011;1295;51.130;6.732;2023-01-05T07:04:13;104.30;;;78.33;;
2570;SDS011;1295;51.130;6.732;2023-01-05T07:06:39;107.57;;;87.07;;
2570;SDS011;1295;51.130;6.732;2023-01-05T07:09:05;106.60;;;66.37;;
2570;SDS011;1295;51.130;6.732;2023-01-05T07:11:31;123.47;;;110.77;;
2570;SDS011;1295;51.130;6.732;2023-01-05T07:13:56;102.27;;;84.13;;
2570;SDS011;1295;51.130;6.732;2023-01-05T07:16:22;120.57;;;105.63;;
2570;SDS011;1295;51.130;6.732;2023-01-05T07:18:48;108.73;;;91.50;;
2570;SDS011;1295;51.130;6.732;2023-01-05T07:21:14;134.57;;;120.93;;
2570;SDS011;1295;51.130;6.732;2023-01-05T07:23:40;111.73;;;94.43;;
2570;SDS011;1295;51.130;6.732;2023-01-05T07:26:06;95.43;;;50.50;;
2570;SDS011;1295;51.130;6.732;2023-01-05T07:28:32;114.70;;;102.40;;
2570;SDS011;1295;51.130;6.732;2023-01-05T07:30:57;126.43;;;113.40;;
2570;SDS011;1295;51.130;6.732;2023-01-05T07:33:23;112.63;;;81.47;;
2570;SDS011;1295;51.130;6.732;2023-01-05T07:35:48;127.87;;;113.37;;
2570;SDS011;1295;51.130;6.732;2023-01-05T07:38:14;114.27;;;81.90;;
2570;SDS011;1295;51.130;6.732;2023-01-05T07:40:40;111.63;;;100.10;;
2570;SDS011;1295;51.130;6.732;2023-01-05T07:43:05;106.03;;;77.07;;
2570;SDS011;1295;51.130;6.732;2023-01-05T07:45:32;129.97;;;117.17;;
2570;SDS011;1295;51.130;6.732;2023-01-05T07:47:57;158.43;;;143.77;;
2570;SDS011;1295;51.130;6.732;2023-01-05T07:50:23;149.70;;;136.73;;
2570;SDS011;1295;51.130;6.732;2023-01-05T07:52:49;106.67;;;76.60;;
2570;SDS011;1295;51.130;6.732;2023-01-05T07:55:14;132.57;;;119.67;;
2570;SDS011;1295;51.130;6.732;2023-01-05T07:57:40;178.77;;;165.17;;
2570;SDS011;1295;51.130;6.732;2023-01-05T08:00:06;103.50;;;84.07;;
2570;SDS011;1295;51.130;6.732;2023-01-05T08:02:33;109.43;;;85.60;;
2570;SDS011;1295;51.130;6.732;2023-01-05T08:04:58;171.13;;;155.97;;
2570;SDS011;1295;51.130;6.732;2023-01-05T08:07:24;127.17;;;113.43;;
2570;SDS011;1295;51.130;6.732;2023-01-05T08:09:50;131.07;;;117.90;;
2570;SDS011;1295;51.130;6.732;2023-01-05T08:12:21;157.07;;;143.13;;
2570;SDS011;1295;51.130;6.732;2023-01-05T08:14:47;153.47;;;140.37;;
2570;SDS011;1295;51.130;6.732;2023-01-05T08:17:13;147.00;;;132.70;;
2570;SDS011;1295;51.130;6.732;2023-01-05T08:19:38;126.80;;;113.43;;
2570;SDS011;1295;51.130;6.732;2023-01-05T08:22:05;140.40;;;127.77;;
2570;SDS011;1295;51.130;6.732;2023-01-05T08:24:30;165.83;;;152.43;;
2570;SDS011;1295;51.130;6.732;2023-01-05T08:26:56;118.30;;;104.97;;
2570;SDS011;1295;51.130;6.732;2023-01-05T08:29:21;110.60;;;89.83;;
2570;SDS011;1295;51.130;6.732;2023-01-05T08:31:47;146.27;;;132.93;;
2570;SDS011;1295;51.130;6.732;2023-01-05T08:34:13;151.73;;;137.73;;
2570;SDS011;1295;51.130;6.732;2023-01-05T08:36:39;270.40;;;253.30;;
2570;SDS011;1295;51.130;6.732;2023-01-05T08:39:05;188.17;;;172.37;;
2570;SDS011;1295;51.130;6.732;2023-01-05T08:41:31;125.43;;;109.63;;
2570;SDS011;1295;51.130;6.732;2023-01-05T08:43:57;135.10;;;121.80;;
2570;SDS011;1295;51.130;6.732;2023-01-05T08:46:23;193.47;;;179.10;;
2570;SDS011;1295;51.130;6.732;2023-01-05T08:48:48;176.70;;;161.63;;
2570;SDS011;1295;51.130;6.732;2023-01-05T08:51:16;160.57;;;146.47;;
2570;SDS011;1295;51.130;6.732;2023-01-05T08:53:41;181.63;;;166.47;;
2570;SDS011;1295;51.130;6.732;2023-01-05T08:56:07;101.77;;;90.40;;
2570;SDS011;1295;51.130;6.732;2023-01-05T08:58:33;170.13;;;155.97;;
2570;SDS011;1295;51.130;6.732;2023-01-05T09:00:58;149.03;;;135.87;;
2570;SDS011;1295;51.130;6.732;2023-01-05T09:03:24;154.47;;;141.07;;
2570;SDS011;1295;51.130;6.732;2023-01-05T09:05:51;182.80;;;166.50;;
2570;SDS011;1295;51.130;6.732;2023-01-05T09:08:16;130.80;;;116.97;;
2570;SDS011;1295;51.130;6.732;2023-01-05T09:10:42;125.97;;;112.53;;
2570;SDS011;1295;51.130;6.732;2023-01-05T09:13:07;182.10;;;167.03;;
2570;SDS011;1295;51.130;6.732;2023-01-05T09:15:33;168.77;;;154.00;;
2570;SDS011;1295;51.130;6.732;2023-01-05T09:17:59;172.03;;;158.03;;
2570;SDS011;1295;51.130;6.732;2023-01-05T09:20:25;209.20;;;192.50;;
2570;SDS011;1295;51.130;6.732;2023-01-05T09:22:51;120.47;;;75.80;;
2570;SDS011;1295;51.130;6.732;2023-01-05T09:25:16;135.13;;;121.93;;
2570;SDS011;1295;51.130;6.732;2023-01-05T09:27:43;211.80;;;194.87;;
2570;SDS011;1295;51.130;6.732;2023-01-05T09:30:09;122.97;;;107.70;;
2570;SDS011;1295;51.130;6.732;2023-01-05T09:32:35;191.97;;;176.93;;
2570;SDS011;1295;51.130;6.732;2023-01-05T09:35:01;255.43;;;235.40;;
2570;SDS011;1295;51.130;6.732;2023-01-05T09:37:26;125.63;;;112.03;;
2570;SDS011;1295;51.130;6.732;2023-01-05T09:39:52;219.07;;;202.87;;
2570;SDS011;1295;51.130;6.732;2023-01-05T09:42:18;202.50;;;186.80;;
2570;SDS011;1295;51.130;6.732;2023-01-05T09:44:45;180.47;;;165.20;;
2570;SDS011;1295;51.130;6.732;2023-01-05T09:47:19;125.53;;;112.03;;
2570;SDS011;1295;51.130;6.732;2023-01-05T09:49:53;116.43;;;90.27;;
2570;SDS011;1295;51.130;6.732;2023-01-05T09:52:20;207.33;;;192.00;;
2570;SDS011;1295;51.130;6.732;2023-01-05T09:54:45;158.73;;;142.80;;
2570;SDS011;1295;51.130;6.732;2023-01-05T09:57:14;246.83;;;230.63;;
2570;SDS011;1295;51.130;6.732;2023-01-05T09:59:38;175.53;;;160.73;;
2570;SDS011;1295;51.130;6.732;2023-01-05T10:02:04;262.03;;;244.23;;
2570;SDS011;1295;51.130;6.732;2023-01-05T10:04:31;196.60;;;181.53;;
2570;SDS011;1295;51.130;6.732;2023-01-05T10:06:59;106.50;;;58.03;;
2570;SDS011;1295;51.130;6.732;2023-01-05T10:09:27;206.10;;;191.20;;
2570;SDS011;1295;51.130;6.732;2023-01-05T10:11:54;153.57;;;139.20;;
2570;SDS011;1295;51.130;6.732;2023-01-05T10:14:28;177.80;;;163.63;;
2570;SDS011;1295;51.130;6.732;2023-01-05T10:16:53;127.13;;;113.63;;
2570;SDS011;1295;51.130;6.732;2023-01-05T10:19:18;115.73;;;93.87;;
2570;SDS011;1295;51.130;6.732;2023-01-05T10:21:50;206.60;;;191.80;;
2570;SDS011;1295;51.130;6.732;2023-01-05T10:24:22;142.77;;;129.50;;
2570;SDS011;1295;51.130;6.732;2023-01-05T10:26:50;128.80;;;116.33;;
2570;SDS011;1295;51.130;6.732;2023-01-05T10:29:14;190.13;;;174.60;;
2570;SDS011;1295;51.130;6.732;2023-01-05T10:31:44;138.00;;;124.47;;
2570;SDS011;1295;51.130;6.732;2023-01-05T10:34:56;119.13;;;96.93;;
2570;SDS011;1295;51.130;6.732;2023-01-05T10:39:44;164.77;;;150.27;;
2570;SDS011;1295;51.130;6.732;2023-01-05T10:42:19;130.77;;;115.70;;
2570;SDS011;1295;51.130;6.732;2023-01-05T10:44:57;186.97;;;171.07;;
2570;SDS011;1295;51.130;6.732;2023-01-05T10:47:23;128.83;;;115.30;;
2570;SDS011;1295;51.130;6.732;2023-01-05T10:49:49;260.07;;;243.60;;
2570;SDS011;1295;51.130;6.732;2023-01-05T10:52:16;251.60;;;232.50;;
2570;SDS011;1295;51.130;6.732;2023-01-05T10:54:47;201.07;;;185.73;;
2570;SDS011;1295;51.130;6.732;2023-01-05T10:59:52;103.13;;;80.30;;
2570;SDS011;1295;51.130;6.732;2023-01-05T11:02:19;107.00;;;88.60;;
2570;SDS011;1295;51.130;6.732;2023-01-05T11:04:46;130.50;;;117.87;;
2570;SDS011;1295;51.130;6.732;2023-01-05T11:07:11;131.87;;;118.00;;
2570;SDS011;1295;51.130;6.732;2023-01-05T11:09:38;227.20;;;210.43;;
2570;SDS011;1295;51.130;6.732;2023-01-05T11:12:03;246.43;;;228.20;;
2570;SDS011;1295;51.130;6.732;2023-01-05T11:14:30;171.90;;;156.87;;
2570;SDS011;1295;51.130;6.732;2023-01-05T11:17:01;231.83;;;215.70;;
2570;SDS011;1295;51.130;6.732;2023-01-05T11:19:21;215.03;;;200.13;;
2570;SDS011;1295;51.130;6.732;2023-01-05T11:21:46;231.53;;;215.07;;
2570;SDS011;1295;51.130;6.732;2023-01-05T11:26:57;114.13;;;86.07;;
2570;SDS011;1295;51.130;6.732;2023-01-05T11:29:21;113.07;;;96.50;;
2570;SDS011;1295;51.130;6.732;2023-01-05T11:31:49;100.00;;;63.63;;
2570;SDS011;1295;51.130;6.732;2023-01-05T11:34:17;104.30;;;77.80;;
2570;SDS011;1295;51.130;6.732;2023-01-05T11:36:53;102.87;;;59.67;;
2570;SDS011;1295;51.130;6.732;2023-01-05T11:39:19;123.17;;;109.93;;
2570;SDS011;1295;51.130;6.732;2023-01-05T11:41:43;121.40;;;106.93;;
2570;SDS011;1295;51.130;6.732;2023-01-05T11:44:13;94.73;;;52.97;;
2570;SDS011;1295;51.130;6.732;2023-01-05T11:46:38;103.90;;;76.13;;
2570;SDS011;1295;51.130;6.732;2023-01-05T11:49:03;103.60;;;78.97;;
2570;SDS011;1295;51.130;6.732;2023-01-05T11:51:31;113.90;;;93.93;;
2570;SDS011;1295;51.130;6.732;2023-01-05T11:53:56;196.23;;;180.83;;
2570;SDS011;1295;51.130;6.732;2023-01-05T11:56:23;103.77;;;68.90;;
2570;SDS011;1295;51.130;6.732;2023-01-05T11:58:50;129.33;;;116.70;;
2570;SDS011;1295;51.130;6.732;2023-01-05T12:01:51;167.27;;;153.50;;
2570;SDS011;1295;51.130;6.732;2023-01-05T12:04:04;154.40;;;139.67;;
2570;SDS011;1295;51.130;6.732;2023-01-05T12:07:04;114.73;;;70.13;;
2570;SDS011;1295;51.130;6.732;2023-01-05T12:09:53;109.10;;;73.73;;
2570;SDS011;1295;51.130;6.732;2023-01-05T12:12:05;106.27;;;70.33;;
2570;SDS011;1295;51.130;6.732;2023-01-05T12:14:51;106.63;;;88.23;;
2570;SDS011;1295;51.130;6.732;2023-01-05T12:17:14;124.37;;;111.57;;
2570;SDS011;1295;51.130;6.732;2023-01-05T12:19:46;110.47;;;93.47;;
2570;SDS011;1295;51.130;6.732;2023-01-05T12:22:31;122.70;;;84.47;;
2570;SDS011;1295;51.130;6.732;2023-01-05T12:25:01;99.37;;;68.27;;
2570;SDS011;1295;51.130;6.732;2023-01-05T12:27:51;106.83;;;89.03;;
2570;SDS011;1295;51.130;6.732;2023-01-05T12:30:18;125.80;;;112.77;;
2570;SDS011;1295;51.130;6.732;2023-01-05T12:35:25;138.60;;;125.60;;
2570;SDS011;1295;51.130;6.732;2023-01-05T12:38:38;111.33;;;93.90;;
2570;SDS011;1295;51.130;6.732;2023-01-05T12:41:07;188.60;;;172.50;;
2570;SDS011;1295;51.130;6.732;2023-01-05T12:43:44;141.27;;;128.77;;
2570;SDS011;1295;51.130;6.732;2023-01-05T12:46:16;229.20;;;212.20;;
2570;SDS011;1295;51.130;6.732;2023-01-05T12:48:41;155.10;;;141.83;;
2570;SDS011;1295;51.130;6.732;2023-01-05T12:51:10;179.60;;;165.70;;
2570;SDS011;1295;51.130;6.732;2023-01-05T12:53:36;119.70;;;107.60;;
2570;SDS011;1295;51.130;6.732;2023-01-05T12:56:36;107.30;;;89.63;;
2570;SDS011;1295;51.130;6.732;2023-01-05T12:59:09;198.87;;;183.83;;
2570;SDS011;1295;51.130;6.732;2023-01-05T13:01:35;125.20;;;113.77;;
2570;SDS011;1295;51.130;6.732;2023-01-05T13:04:01;132.20;;;120.40;;
2570;SDS011;1295;51.130;6.732;2023-01-05T13:06:26;110.90;;;98.73;;
2570;SDS011;1295;51.130;6.732;2023-01-05T13:08:52;223.80;;;208.40;;
2570;SDS011;1295;51.130;6.732;2023-01-05T13:11:24;146.87;;;133.17;;
2570;SDS011;1295;51.130;6.732;2023-01-05T13:13:47;128.60;;;115.33;;
2570;SDS011;1295;51.130;6.732;2023-01-05T13:16:16;115.77;;;104.70;;
2570;SDS011;1295;51.130;6.732;2023-01-05T13:18:44;102.67;;;81.30;;
2570;SDS011;1295;51.130;6.732;2023-01-05T13:21:07;234.73;;;218.40;;
2570;SDS011;1295;51.130;6.732;2023-01-05T13:23:35;165.67;;;151.70;;
2570;SDS011;1295;51.130;6.732;2023-01-05T13:26:00;211.50;;;195.40;;
2570;SDS011;1295;51.130;6.732;2023-01-05T13:28:25;169.90;;;154.90;;
2570;SDS011;1295;51.130;6.732;2023-01-05T13:30:55;188.03;;;173.43;;
2570;SDS011;1295;51.130;6.732;2023-01-05T13:36:20;277.90;;;260.27;;
2570;SDS011;1295;51.130;6.732;2023-01-05T13:38:50;148.17;;;134.93;;
2570;SDS011;1295;51.130;6.732;2023-01-05T13:44:22;262.07;;;244.63;;
2570;SDS011;1295;51.130;6.732;2023-01-05T13:46:51;258.53;;;242.17;;
2570;SDS011;1295;51.130;6.732;2023-01-05T13:49:25;175.97;;;161.53;;
2570;SDS011;1295;51.130;6.732;2023-01-05T13:51:53;161.50;;;146.80;;
2570;SDS011;1295;51.130;6.732;2023-01-05T13:54:23;127.07;;;115.37;;
2570;SDS011;1295;51.130;6.732;2023-01-05T13:57:06;155.93;;;141.80;;
2570;SDS011;1295;51.130;6.732;2023-01-05T13:59:32;204.30;;;190.00;;
2570;SDS011;1295;51.130;6.732;2023-01-05T14:01:58;187.07;;;173.17;;
2570;SDS011;1295;51.130;6.732;2023-01-05T14:04:25;127.23;;;115.03;;
2570;SDS011;1295;51.130;6.732;2023-01-05T14:07:00;167.17;;;154.37;;
2570;SDS011;1295;51.130;6.732;2023-01-05T14:09:31;160.93;;;148.27;;
2570;SDS011;1295;51.130;6.732;2023-01-05T14:26:04;183.60;;;169.27;;
2570;SDS011;1295;51.130;6.732;2023-01-05T14:28:40;178.13;;;163.30;;
2570;SDS011;1295;51.130;6.732;2023-01-05T14:33:58;185.13;;;170.97;;
2570;SDS011;1295;51.130;6.732;2023-01-05T14:39:01;190.43;;;176.17;;
2570;SDS011;1295;51.130;6.732;2023-01-05T14:41:27;109.07;;;95.33;;
2570;SDS011;1295;51.130;6.732;2023-01-05T14:43:57;159.50;;;145.83;;
2570;SDS011;1295;51.130;6.732;2023-01-05T14:46:22;153.57;;;140.03;;
2570;SDS011;1295;51.130;6.732;2023-01-05T14:48:57;132.43;;;120.63;;
2570;SDS011;1295;51.130;6.732;2023-01-05T14:51:29;247.63;;;230.67;;
2570;SDS011;1295;51.130;6.732;2023-01-05T14:53:55;140.13;;;126.17;;
2570;SDS011;1295;51.130;6.732;2023-01-05T14:56:23;120.73;;;108.63;;
2570;SDS011;1295;51.130;6.732;2023-01-05T14:58:49;112.30;;;100.63;;
2570;SDS011;1295;51.130;6.732;2023-01-05T15:01:24;103.83;;;86.37;;
2570;SDS011;1295;51.130;6.732;2023-01-05T15:04:27;82.60;;;56.77;;
2570;SDS011;1295;51.130;6.732;2023-01-05T15:09:20;92.50;;;64.30;;
2570;SDS011;1295;51.130;6.732;2023-01-05T15:14:19;101.43;;;41.30;;
2570;SDS011;1295;51.130;6.732;2023-01-05T15:17:08;90.87;;;45.87;;
2570;SDS011;1295;51.130;6.732;2023-01-05T15:19:56;99.27;;;71.73;;
2570;SDS011;1295;51.130;6.732;2023-01-05T15:22:32;106.80;;;73.33;;
2570;SDS011;1295;51.130;6.732;2023-01-05T15:25:01;98.83;;;64.00;;
2570;SDS011;1295;51.130;6.732;2023-01-05T15:27:34;90.83;;;46.93;;